Time;durP1;ratioP1;P1;durP2;ratioP2;P2;SDS_P1;SDS_P2;PMS_P1;PMS_P2;Temp;Humidity;BMP_temperature;BMP_pressure;BME280_temperature;BME280_humidity;BME280_pressure;Samples;Min_cycle;Max_cycle;Signal;HPM_P1;HPM_P2
2021/11/22 00:02:03;;;;;;;4.60;1.60;;;;;;;19.20;43.31;101855.84;5093620;28;20085;-63
2021/11/22 00:04:28;;;;;;;4.18;1.58;;;;;;;19.19;43.42;101863.88;5093860;28;20060;-64
2021/11/22 00:06:53;;;;;;;4.93;1.30;;;;;;;19.17;43.12;101857.84;5094817;28;20475;-63
2021/11/22 00:09:19;;;;;;;4.22;1.65;;;;;;;19.15;43.40;101857.09;5095444;28;20036;-64
2021/11/22 00:11:44;;;;;;;4.00;1.45;;;;;;;19.14;43.28;101866.00;5095411;28;20475;-64
2021/11/22 00:14:10;;;;;;;4.47;1.55;;;;;;;19.12;43.31;101863.47;5093478;28;20517;-63
2021/11/22 00:16:35;;;;;;;3.63;1.25;;;;;;;19.10;43.43;101875.06;5092462;28;20471;-64
2021/11/22 00:19:02;;;;;;;3.80;1.35;;;;;;;19.08;43.43;101872.53;5093803;28;20378;-63
2021/11/22 00:21:27;;;;;;;4.00;1.30;;;;;;;19.07;43.38;101877.94;5093132;28;20428;-63
2021/11/22 00:23:53;;;;;;;3.53;1.25;;;;;;;19.06;43.27;101876.22;5092747;28;20071;-63
2021/11/22 00:26:18;;;;;;;3.28;1.20;;;;;;;19.03;43.32;101875.50;5093471;28;20042;-63
2021/11/22 00:28:43;;;;;;;3.53;1.27;;;;;;;19.02;43.36;101876.44;5093104;28;20046;-63
2021/11/22 00:31:09;;;;;;;3.50;1.13;;;;;;;19.00;43.32;101893.38;5092234;28;20028;-63
2021/11/22 00:33:34;;;;;;;3.60;1.20;;;;;;;18.97;43.51;101890.94;5093114;28;20407;-63
2021/11/22 00:36:00;;;;;;;2.75;1.13;;;;;;;18.96;43.36;101890.09;5092466;28;20467;-64
2021/11/22 00:38:25;;;;;;;3.45;1.10;;;;;;;18.95;43.53;101898.13;5093125;28;20032;-63
2021/11/22 00:40:50;;;;;;;3.17;1.27;;;;;;;18.94;43.37;101901.69;5092664;28;20039;-64
2021/11/22 00:43:19;;;;;;;3.47;1.40;;;;;;;18.93;43.49;101907.94;5092190;28;20376;-64
2021/11/22 00:45:49;;;;;;;4.00;1.23;;;;;;;18.91;43.50;101897.47;5092588;28;20028;-63
2021/11/22 00:48:14;;;;;;;2.83;1.10;;;;;;;18.90;43.19;101913.41;5093360;28;20130;-62
2021/11/22 00:50:39;;;;;;;3.92;1.27;;;;;;;18.89;43.07;101914.38;5092047;28;20094;-64
2021/11/22 00:53:05;;;;;;;4.25;1.20;;;;;;;18.87;43.17;101917.13;5092807;28;20020;-62
2021/11/22 00:55:30;;;;;;;2.85;1.20;;;;;;;18.85;43.33;101922.50;5092780;28;20100;-63
2021/11/22 00:57:56;;;;;;;3.90;1.40;;;;;;;18.85;43.04;101933.06;5092269;28;20029;-63
2021/11/22 01:00:23;;;;;;;2.45;0.93;;;;;;;18.83;43.36;101928.81;5092914;28;20035;-63
2021/11/22 01:02:48;;;;;;;2.38;0.93;;;;;;;18.80;43.00;101937.78;5092972;28;20183;-63
2021/11/22 01:05:15;;;;;;;3.38;1.10;;;;;;;18.80;43.18;101945.72;5092213;28;20066;-63
2021/11/22 01:07:40;;;;;;;2.83;1.20;;;;;;;18.79;43.23;101945.81;5092813;28;20055;-63
2021/11/22 01:10:07;;;;;;;4.22;1.23;;;;;;;18.77;42.95;101953.84;5091987;28;20059;-63
2021/11/22 01:12:33;;;;;;;4.05;1.30;;;;;;;18.76;42.98;101951.31;5091688;28;20024;-63
2021/11/22 01:14:59;;;;;;;2.78;1.23;;;;;;;18.75;43.15;101965.44;5092619;28;20380;-63
2021/11/22 01:17:25;;;;;;;3.30;1.20;;;;;;;18.73;42.92;101962.91;5093002;28;20028;-64
2021/11/22 01:19:54;;;;;;;3.30;1.27;;;;;;;18.72;43.05;101963.84;5091876;28;20104;-64
2021/11/22 01:22:21;;;;;;;2.97;1.10;;;;;;;18.71;43.26;101963.94;5092958;28;20405;-64
2021/11/22 01:24:47;;;;;;;3.17;1.10;;;;;;;18.70;42.97;101975.47;5092219;28;20549;-63
2021/11/22 01:27:12;;;;;;;3.33;1.33;;;;;;;18.68;43.20;101971.13;5092466;28;20028;-63
2021/11/22 01:29:38;;;;;;;4.25;1.00;;;;;;;18.66;42.98;101974.84;5092290;28;20070;-62
2021/11/22 01:32:03;;;;;;;2.20;1.00;;;;;;;18.64;43.19;101977.56;5092466;28;20020;-63
2021/11/22 01:34:29;;;;;;;3.38;1.20;;;;;;;18.65;42.94;101978.41;5091592;28;20042;-64
2021/11/22 01:36:55;;;;;;;3.33;1.13;;;;;;;18.62;42.96;101979.44;5092783;28;20023;-64
2021/11/22 01:39:20;;;;;;;3.17;1.00;;;;;;;18.58;43.16;101985.91;5091857;28;20115;-64
2021/11/22 01:41:45;;;;;;;2.30;1.10;;;;;;;18.61;42.94;101980.41;5092161;28;20391;-64
2021/11/22 01:44:12;;;;;;;3.40;1.10;;;;;;;18.59;42.90;101981.44;5092211;28;20028;-64
2021/11/22 01:46:37;;;;;;;2.40;0.95;;;;;;;18.60;42.78;101997.19;5091377;28;20061;-64
2021/11/22 01:49:03;;;;;;;1.88;0.80;;;;;;;18.58;43.06;102001.72;5092493;28;20012;-64
2021/11/22 01:51:30;;;;;;;2.35;0.80;;;;;;;18.58;42.78;102006.16;5092090;28;20043;-63
2021/11/22 01:53:55;;;;;;;3.60;0.90;;;;;;;18.55;43.10;102008.97;5091679;28;20360;-63
2021/11/22 01:56:20;;;;;;;3.20;0.95;;;;;;;18.55;42.91;102014.25;5092250;28;20099;-63
2021/11/22 01:58:47;;;;;;;2.78;1.02;;;;;;;18.55;43.12;102014.25;5092053;28;20024;-64
2021/11/22 02:01:12;;;;;;;4.15;1.20;;;;;;;18.53;42.96;102016.16;5091719;28;20047;-64
2021/11/22 02:03:38;;;;;;;2.47;0.90;;;;;;;18.53;42.79;102010.88;5092270;28;20463;-63
2021/11/22 02:06:05;;;;;;;3.33;0.90;;;;;;;18.51;42.63;102015.44;5092473;28;20069;-64
2021/11/22 02:08:30;;;;;;;2.63;1.00;;;;;;;18.49;42.76;102016.34;5091188;28;20040;-64
2021/11/22 02:10:56;;;;;;;2.97;0.90;;;;;;;18.50;42.63;102030.44;5092380;28;20364;-64
2021/11/22 02:13:21;;;;;;;3.70;0.90;;;;;;;18.49;42.62;102028.72;5092060;28;20051;-64
2021/11/22 02:15:47;;;;;;;2.55;0.90;;;;;;;18.47;42.67;102026.19;5091351;28;20056;-63
2021/11/22 02:18:13;;;;;;;1.75;0.73;;;;;;;18.47;42.58;102033.25;5092442;28;20024;-64
2021/11/22 02:20:38;;;;;;;2.22;0.70;;;;;;;18.46;42.71;102042.94;5091879;28;20652;-63
2021/11/22 02:23:09;;;;;;;1.95;0.73;;;;;;;18.45;42.84;102048.34;5095040;28;20094;-64
2021/11/22 02:25:37;;;;;;;2.00;0.70;;;;;;;18.44;42.74;102042.22;5095885;28;20036;-62
2021/11/22 02:28:04;;;;;;;2.35;0.90;;;;;;;18.43;42.78;102044.94;5096313;28;20072;-63
2021/11/22 02:30:33;;;;;;;1.83;0.70;;;;;;;18.42;42.57;102046.75;5095209;28;20106;-63
2021/11/22 02:33:01;;;;;;;2.17;0.75;;;;;;;18.41;42.85;102044.22;5095983;28;20020;-63
2021/11/22 02:35:31;;;;;;;4.13;0.85;;;;;;;18.41;42.32;102045.03;5095099;28;20028;-63
2021/11/22 02:37:56;;;;;;;2.58;0.80;;;;;;;18.41;42.64;102046.84;5096020;28;20028;-64
2021/11/22 02:40:22;;;;;;;2.78;0.90;;;;;;;18.39;42.49;102052.22;5095622;28;20551;-63
2021/11/22 02:42:48;;;;;;;2.08;0.60;;;;;;;18.38;42.68;102053.16;5095167;28;20027;-63
2021/11/22 02:45:17;;;;;;;1.77;0.70;;;;;;;18.38;42.61;102052.31;5095584;28;20471;-63
2021/11/22 02:47:44;;;;;;;2.30;0.70;;;;;;;18.38;42.64;102052.31;5095510;28;20448;-62
2021/11/22 02:50:11;;;;;;;1.83;0.68;;;;;;;18.36;42.76;102052.41;5095003;28;20020;-63
2021/11/22 02:52:38;;;;;;;3.38;0.98;;;;;;;18.36;42.53;102054.19;5095400;28;20020;-63
2021/11/22 02:55:05;;;;;;;2.17;0.80;;;;;;;18.31;42.84;102057.97;5095633;28;20086;-63
2021/11/22 02:57:31;;;;;;;2.90;0.98;;;;;;;18.34;42.68;102064.00;5094355;28;20090;-63
2021/11/22 02:59:56;;;;;;;3.00;1.10;;;;;;;18.33;42.83;102068.44;5095614;28;20471;-64
2021/11/22 03:02:21;;;;;;;1.90;0.75;;;;;;;18.31;42.66;102068.53;5095537;28;20492;-64
2021/11/22 03:04:47;;;;;;;2.33;0.82;;;;;;;18.31;42.35;102075.63;5094060;28;20016;-63
2021/11/22 03:07:12;;;;;;;2.83;0.80;;;;;;;18.30;42.41;102079.19;5095358;28;20030;-64
2021/11/22 03:09:39;;;;;;;2.05;0.60;;;;;;;18.30;42.71;102079.19;5095219;28;20067;-64
2021/11/22 03:12:07;;;;;;;1.88;0.70;;;;;;;18.30;42.54;102087.09;5094333;28;20028;-64
2021/11/22 03:14:33;;;;;;;2.75;0.70;;;;;;;18.29;42.41;102093.31;5094679;28;20130;-63
2021/11/22 03:16:59;;;;;;;3.38;0.90;;;;;;;18.28;42.67;102084.56;5095063;28;20020;-63
2021/11/22 03:19:25;;;;;;;2.10;0.80;;;;;;;18.27;42.37;102098.69;5094350;28;20035;-63
2021/11/22 03:21:51;;;;;;;2.28;0.80;;;;;;;18.25;42.47;102092.66;5094615;28;20020;-63
2021/11/22 03:24:16;;;;;;;2.78;0.82;;;;;;;18.25;42.92;102105.84;5095016;28;20034;-62
2021/11/22 03:26:42;;;;;;;2.53;0.75;;;;;;;18.28;42.73;102096.91;5094126;28;20032;-63
2021/11/22 03:29:08;;;;;;;2.30;0.70;;;;;;;18.28;42.73;102099.56;5094881;28;20436;-63
2021/11/22 03:31:36;;;;;;;2.10;0.60;;;;;;;18.31;42.54;102104.66;5094512;28;20036;-63
2021/11/22 03:34:02;;;;;;;2.13;0.77;;;;;;;18.33;42.23;102107.19;5092934;28;20020;-63
2021/11/22 03:36:29;;;;;;;1.27;0.60;;;;;;;18.34;42.41;102120.28;5094298;28;20016;-63
2021/11/22 03:38:54;;;;;;;2.65;0.75;;;;;;;18.36;42.23;102125.44;5094343;28;20027;-63
2021/11/22 03:41:20;;;;;;;2.35;0.73;;;;;;;18.36;42.49;102134.22;5094827;28;20494;-63
2021/11/22 03:43:59;;;;;;;2.55;0.80;;;;;;;18.36;42.12;102131.59;5094336;28;20020;-63
2021/11/22 03:46:25;;;;;;;2.67;0.68;;;;;;;18.38;42.00;102137.63;5093933;28;20024;-62
2021/11/22 03:48:51;;;;;;;1.85;0.68;;;;;;;18.38;42.08;102131.50;5094182;28;20028;-64
2021/11/22 03:51:17;;;;;;;1.58;0.68;;;;;;;18.38;42.18;102134.97;5094520;28;20471;-63
2021/11/22 03:53:43;;;;;;;2.03;0.73;;;;;;;18.39;41.85;102138.44;5093357;28;20020;-63
2021/11/22 03:56:10;;;;;;;2.55;0.60;;;;;;;18.39;42.03;102139.31;5094520;28;20531;-63
2021/11/22 03:58:36;;;;;;;2.40;0.82;;;;;;;18.38;41.85;102137.63;5094115;28;20111;-63
2021/11/22 04:01:02;;;;;;;1.92;0.68;;;;;;;18.38;41.92;102148.19;5093483;28;20016;-63
2021/11/22 04:03:28;;;;;;;3.13;0.80;;;;;;;18.39;41.70;102151.66;5093866;28;20108;-64
2021/11/22 04:05:54;;;;;;;2.15;0.65;;;;;;;18.38;41.95;102152.63;5094276;28;20027;-63
2021/11/22 04:08:19;;;;;;;2.55;0.70;;;;;;;18.36;41.89;102149.19;5093498;28;20112;-64
2021/11/22 04:10:45;;;;;;;2.28;0.70;;;;;;;18.38;41.77;102152.63;5093934;28;20418;-63
2021/11/22 04:13:10;;;;;;;1.52;0.60;;;;;;;18.37;41.81;102159.66;5093758;28;20921;-62
2021/11/22 04:15:37;;;;;;;1.90;0.77;;;;;;;18.37;41.57;102167.59;5092847;28;20035;-63
2021/11/22 04:18:03;;;;;;;0.63;0.45;;;;;;;18.35;41.89;102166.84;5093905;28;20020;-64
2021/11/22 04:20:29;;;;;;;2.15;0.70;;;;;;;18.37;41.72;102179.94;5093654;28;20135;-64
2021/11/22 04:22:55;;;;;;;1.88;0.70;;;;;;;18.37;41.82;102190.50;5093194;28;20099;-63
2021/11/22 04:25:21;;;;;;;2.08;0.70;;;;;;;18.37;42.21;102193.13;5093712;28;20077;-63
2021/11/22 04:27:47;;;;;;;2.83;0.80;;;;;;;18.38;42.01;102195.69;5093682;28;20062;-63
2021/11/22 04:30:13;;;;;;;1.60;0.65;;;;;;;18.38;41.92;102200.97;5093236;28;20032;-63
2021/11/22 04:32:39;;;;;;;2.80;0.77;;;;;;;18.37;42.04;102199.25;5093371;28;20028;-63
2021/11/22 04:35:07;;;;;;;2.13;0.70;;;;;;;18.39;41.70;102202.66;5092842;28;20024;-63
2021/11/22 04:37:33;;;;;;;2.55;0.63;;;;;;;18.41;41.72;102213.97;5092891;28;20031;-63
2021/11/22 04:39:59;;;;;;;1.10;0.60;;;;;;;18.39;41.75;102213.22;5093193;28;20058;-63
2021/11/22 04:42:24;;;;;;;1.85;0.70;;;;;;;18.40;41.54;102217.53;5092540;28;20459;-64
2021/11/22 04:44:50;;;;;;;3.03;0.70;;;;;;;18.40;41.36;102225.47;5092285;28;20092;-63
2021/11/22 04:47:19;;;;;;;1.50;0.52;;;;;;;18.39;41.58;102225.56;5092643;28;20047;-63
2021/11/22 04:49:45;;;;;;;1.60;0.70;;;;;;;18.39;41.29;102218.50;5092102;28;20111;-63
2021/11/22 04:52:10;;;;;;;1.27;0.60;;;;;;;18.39;41.37;102236.13;5092773;28;20043;-63
2021/11/22 04:54:37;;;;;;;2.25;0.60;;;;;;;18.39;41.59;102241.38;5092534;28;20386;-63
2021/11/22 04:57:03;;;;;;;2.00;0.60;;;;;;;18.38;41.42;102237.06;5091971;28;20429;-62
2021/11/22 04:59:29;;;;;;;1.92;0.80;;;;;;;18.38;41.49;102242.34;5092399;28;20028;-63
2021/11/22 05:01:54;;;;;;;1.30;0.55;;;;;;;18.38;41.03;102247.63;5092641;28;20036;-63
2021/11/22 05:04:20;;;;;;;2.80;0.68;;;;;;;18.37;41.17;102249.41;5092190;28;20110;-63
2021/11/22 05:06:45;;;;;;;1.17;0.60;;;;;;;18.35;41.40;102251.28;5092937;28;20085;-63
2021/11/22 05:09:11;;;;;;;2.08;0.88;;;;;;;18.34;41.07;102252.25;5092965;28;20028;-64
2021/11/22 05:11:36;;;;;;;2.38;0.60;;;;;;;18.34;41.32;102256.66;5091936;28;20115;-63
2021/11/22 05:14:01;;;;;;;1.52;0.70;;;;;;;18.34;41.56;102264.56;5092749;28;20048;-63
2021/11/22 05:16:27;;;;;;;2.45;0.68;;;;;;;18.34;41.32;102269.84;5092279;28;20468;-63
2021/11/22 05:18:52;;;;;;;0.93;0.43;;;;;;;18.33;41.25;102263.75;5092265;28;20027;-63
2021/11/22 05:21:17;;;;;;;1.67;0.63;;;;;;;18.34;41.53;102277.78;5093014;28;20020;-63
2021/11/22 05:23:43;;;;;;;1.88;0.60;;;;;;;18.32;41.21;102277.88;5092454;28;20341;-64
2021/11/22 05:26:08;;;;;;;3.03;0.77;;;;;;;18.34;41.27;102281.28;5091571;28;20043;-65
2021/11/22 05:28:33;;;;;;;1.65;0.60;;;;;;;18.36;41.29;102292.59;5092138;28;20020;-64
2021/11/22 05:30:59;;;;;;;2.00;0.70;;;;;;;18.37;41.50;102290.78;5092120;28;20067;-63
2021/11/22 05:33:24;;;;;;;1.27;0.60;;;;;;;18.36;41.30;102289.09;5091641;28;20027;-64
2021/11/22 05:35:49;;;;;;;2.35;0.80;;;;;;;18.37;40.94;102296.06;5091786;28;20782;-64
2021/11/22 05:38:15;;;;;;;1.92;0.60;;;;;;;18.37;41.17;102301.34;5092485;28;20111;-63
2021/11/22 05:40:40;;;;;;;2.00;0.60;;;;;;;18.36;40.92;102294.34;5091431;28;20475;-63
2021/11/22 05:43:05;;;;;;;2.58;0.70;;;;;;;18.36;40.94;102303.16;5092129;28;20104;-63
2021/11/22 05:45:31;;;;;;;2.08;0.70;;;;;;;18.35;40.96;102306.72;5090966;28;20040;-63
2021/11/22 05:47:56;;;;;;;2.22;0.65;;;;;;;18.34;41.16;102309.44;5091906;28;20052;-63
2021/11/22 05:50:22;;;;;;;2.33;0.80;;;;;;;18.32;40.73;102304.25;5092120;28;20111;-63
2021/11/22 05:52:52;;;;;;;1.25;0.50;;;;;;;18.33;40.69;102311.25;5091002;28;20479;-64
2021/11/22 05:55:41;;;;;;;1.55;0.50;;;;;;;18.33;40.72;102313.88;5092111;28;20440;-63
2021/11/22 05:58:11;;;;;;;2.38;0.80;;;;;;;18.33;40.63;102318.31;5095395;28;20024;-64
2021/11/22 06:00:36;;;;;;;2.90;0.90;;;;;;;18.30;40.96;102325.47;5095281;28;20099;-64
2021/11/22 06:03:02;;;;;;;1.40;0.60;;;;;;;18.29;40.71;102325.56;5096424;28;20048;-64
2021/11/22 06:05:27;;;;;;;2.50;0.77;;;;;;;18.30;41.02;102329.91;5095615;28;20119;-64
2021/11/22 06:07:53;;;;;;;2.63;0.70;;;;;;;18.29;40.87;102342.25;5095239;28;20032;-64
2021/11/22 06:10:19;;;;;;;2.15;0.70;;;;;;;18.29;41.34;102341.38;5095760;28;20027;-63
2021/11/22 06:12:44;;;;;;;1.80;0.60;;;;;;;18.30;41.70;102340.47;5095536;28;20020;-63
2021/11/22 06:15:09;;;;;;;1.00;0.55;;;;;;;18.33;42.80;102344.72;5095064;28;20040;-63
2021/11/22 06:17:35;;;;;;;1.65;0.70;;;;;;;18.34;43.73;102347.28;5095610;28;20053;-63
2021/11/22 06:20:01;;;;;;;0.85;0.50;;;;;;;18.37;43.84;102354.13;5095944;28;20081;-63
2021/11/22 06:22:26;;;;;;;1.92;0.60;;;;;;;18.37;44.18;102354.97;5094823;28;20020;-64
2021/11/22 06:24:52;;;;;;;1.67;0.52;;;;;;;18.39;43.83;102354.88;5095479;28;20043;-63
2021/11/22 06:27:17;;;;;;;1.30;0.60;;;;;;;18.41;44.17;102359.16;5095903;28;20032;-64
2021/11/22 06:29:43;;;;;;;2.63;0.80;;;;;;;18.42;43.94;102363.50;5094664;28;20281;-64
2021/11/22 06:32:12;;;;;;;1.85;0.70;;;;;;;18.45;44.15;102370.38;5095627;28;20024;-63
2021/11/22 06:34:40;;;;;;;1.58;0.60;;;;;;;18.46;43.92;102370.28;5094604;28;20024;-63
2021/11/22 06:37:06;;;;;;;2.03;0.60;;;;;;;18.48;43.87;102364.91;5095460;28;20424;-63
2021/11/22 06:39:33;;;;;;;1.02;0.45;;;;;;;18.51;43.89;102372.66;5094993;28;20116;-64
2021/11/22 06:41:58;;;;;;;2.25;0.70;;;;;;;18.53;43.88;102372.56;5094482;28;20417;-63
2021/11/22 06:44:23;;;;;;;2.00;0.60;;;;;;;18.55;43.81;102378.59;5095222;28;20091;-63
2021/11/22 06:46:49;;;;;;;1.60;0.60;;;;;;;18.56;43.74;102375.88;5095161;28;20099;-63
2021/11/22 06:49:19;;;;;;;1.88;0.60;;;;;;;18.58;43.66;102381.06;5094557;28;20092;-63
2021/11/22 06:51:45;;;;;;;2.00;0.60;;;;;;;18.58;43.92;102388.97;5094777;28;20427;-64
2021/11/22 06:54:11;;;;;;;1.80;0.63;;;;;;;18.58;43.66;102387.22;5095065;28;20097;-63
2021/11/22 06:56:36;;;;;;;1.83;0.65;;;;;;;18.60;43.73;102397.69;5093923;28;20532;-63
2021/11/22 06:59:02;;;;;;;2.60;0.80;;;;;;;18.61;43.60;102407.28;5095336;28;20016;-63
2021/11/22 07:01:29;;;;;;;0.98;0.40;;;;;;;18.62;43.69;102406.34;5095151;28;20047;-63
2021/11/22 07:03:54;;;;;;;1.08;0.50;;;;;;;18.61;43.72;102404.66;5094623;28;20027;-62
2021/11/22 07:06:19;;;;;;;1.88;0.68;;;;;;;18.64;43.96;102413.25;5095141;28;20028;-63
2021/11/22 07:08:44;;;;;;;1.13;0.47;;;;;;;18.64;43.77;102412.38;5094695;28;20099;-63
2021/11/22 07:11:10;;;;;;;1.10;0.52;;;;;;;18.66;43.53;102424.56;5094165;28;20333;-63
2021/11/22 07:13:35;;;;;;;2.73;0.60;;;;;;;18.66;43.61;102434.28;5094644;28;20079;-63
2021/11/22 07:16:01;;;;;;;2.13;0.60;;;;;;;18.69;43.62;102439.38;5095115;28;20264;-64
2021/11/22 07:18:27;;;;;;;1.30;0.50;;;;;;;18.69;43.72;102447.28;5094079;28;20024;-63
2021/11/22 07:20:54;;;;;;;2.50;0.75;;;;;;;18.66;41.43;102445.69;5095031;28;20063;-64
2021/11/22 07:23:22;;;;;;;3.13;1.25;;;;;;;18.64;41.96;102455.50;5094889;28;20394;-62
2021/11/22 07:25:53;;;;;;;1.35;0.57;;;;;;;18.64;42.23;102463.44;5093619;28;20032;-61
2021/11/22 07:28:19;;;;;;;1.42;0.57;;;;;;;18.68;42.70;102477.31;5094904;28;20082;-62
2021/11/22 07:30:45;;;;;;;4.35;0.80;;;;;;;18.70;42.61;102474.56;5094638;28;20024;-61
2021/11/22 07:33:11;;;;;;;2.65;0.70;;;;;;;18.72;42.50;102480.59;5094264;28;20376;-61
2021/11/22 07:35:37;;;;;;;1.15;0.50;;;;;;;18.72;42.62;102475.31;5094416;28;20101;-60
2021/11/22 07:38:02;;;;;;;2.25;0.90;;;;;;;18.74;42.78;102486.63;5093939;28;20056;-63
2021/11/22 07:40:28;;;;;;;2.30;0.95;;;;;;;18.77;42.32;102492.63;5094524;28;20411;-63
2021/11/22 07:42:54;;;;;;;2.75;0.77;;;;;;;18.78;42.68;102496.94;5094744;28;20088;-63
2021/11/22 07:45:20;;;;;;;2.15;0.60;;;;;;;18.79;42.80;102497.81;5093737;28;20036;-63
2021/11/22 07:47:49;;;;;;;2.97;1.05;;;;;;;18.79;42.45;102501.28;5094313;28;20051;-63
2021/11/22 07:50:16;;;;;;;2.88;0.90;;;;;;;18.79;42.70;102511.03;5094517;28;20053;-63
2021/11/22 07:52:41;;;;;;;2.13;0.73;;;;;;;18.82;42.65;102519.59;5093290;28;20016;-64
2021/11/22 07:55:07;;;;;;;1.50;0.50;;;;;;;18.83;42.50;102517.81;5094137;28;20092;-64
2021/11/22 07:57:32;;;;;;;2.78;0.82;;;;;;;18.83;40.43;102523.09;5094257;28;20027;-63
2021/11/22 07:59:58;;;;;;;2.97;0.70;;;;;;;18.80;41.79;102520.63;5093931;28;20072;-64
2021/11/22 08:02:23;;;;;;;2.33;0.80;;;;;;;18.81;42.30;102533.75;5094405;28;20494;-64
2021/11/22 08:04:49;;;;;;;2.28;0.70;;;;;;;18.83;42.17;102533.66;5093804;28;20036;-64
2021/11/22 08:07:17;;;;;;;2.05;0.70;;;;;;;18.83;42.16;102539.81;5093404;28;20035;-64
2021/11/22 08:09:54;;;;;;;1.45;0.60;;;;;;;18.84;42.37;102540.69;5094016;28;20081;-64
2021/11/22 08:12:26;;;;;;;2.28;0.70;;;;;;;18.87;42.13;102550.22;5094195;28;20179;-65
2021/11/22 08:14:52;;;;;;;1.95;0.60;;;;;;;18.90;42.34;102550.91;5093400;28;20040;-65
2021/11/22 08:17:18;;;;;;;1.92;0.65;;;;;;;18.90;42.40;102556.19;5094002;28;20024;-65
2021/11/22 08:19:43;;;;;;;2.05;0.77;;;;;;;18.92;42.22;102556.09;5093302;28;20081;-66
2021/11/22 08:22:10;;;;;;;1.52;0.70;;;;;;;18.92;42.29;102556.94;5092971;28;20042;-65
2021/11/22 08:24:35;;;;;;;1.55;0.70;;;;;;;18.92;42.70;102554.28;5093623;28;20387;-65
2021/11/22 08:27:01;;;;;;;2.53;0.90;;;;;;;18.93;42.43;102556.00;5093997;28;20031;-64
2021/11/22 08:29:26;;;;;;;5.38;0.80;;;;;;;18.90;42.34;102556.19;5092790;28;20100;-65
2021/11/22 08:31:51;;;;;;;2.85;0.80;;;;;;;18.93;42.46;102566.59;5093897;28;20122;-64
2021/11/22 08:34:17;;;;;;;2.38;0.80;;;;;;;18.93;42.72;102571.00;5092999;28;20389;-64
2021/11/22 08:36:42;;;;;;;1.65;0.65;;;;;;;18.95;42.58;102574.41;5093426;28;20095;-64
2021/11/22 08:39:08;;;;;;;1.95;0.73;;;;;;;18.95;42.35;102574.41;5093867;28;20487;-65
2021/11/22 08:41:33;;;;;;;1.63;0.73;;;;;;;18.96;42.20;102576.09;5092581;28;20020;-65
2021/11/22 08:43:59;;;;;;;2.22;0.65;;;;;;;18.95;42.37;102575.25;5093550;28;20052;-64
2021/11/22 08:46:25;;;;;;;3.17;0.88;;;;;;;18.95;42.43;102582.34;5093310;28;20396;-64
2021/11/22 08:48:50;;;;;;;1.98;0.80;;;;;;;18.94;42.42;102576.19;5092164;28;20107;-64
2021/11/22 08:51:16;;;;;;;3.47;0.90;;;;;;;18.96;41.48;102584.03;5093618;28;20532;-64
2021/11/22 08:53:41;;;;;;;1.73;0.75;;;;;;;18.93;42.03;102586.84;5093238;28;20431;-63
2021/11/22 08:56:07;;;;;;;1.90;0.65;;;;;;;18.92;42.16;102591.28;5092555;28;20380;-65
2021/11/22 08:58:34;;;;;;;3.80;1.00;;;;;;;18.94;42.32;102594.69;5092849;28;20110;-65
2021/11/22 09:01:00;;;;;;;3.35;0.80;;;;;;;18.94;42.09;102605.25;5093049;28;20482;-65
2021/11/22 09:03:28;;;;;;;2.10;0.80;;;;;;;18.93;42.28;102598.28;5092150;28;20020;-66
2021/11/22 09:05:53;;;;;;;1.67;0.70;;;;;;;18.94;42.38;102613.19;5092897;28;20494;-66
2021/11/22 09:08:18;;;;;;;7.20;0.80;;;;;;;18.95;42.41;102604.31;5093191;28;20036;-65
2021/11/22 09:10:46;;;;;;;2.25;0.60;;;;;;;18.95;42.38;102620.19;5092098;28;20519;-65
2021/11/22 09:13:14;;;;;;;2.70;0.88;;;;;;;18.95;42.55;102617.53;5092829;28;20139;-65
2021/11/22 09:15:40;;;;;;;2.97;0.77;;;;;;;18.96;42.41;102624.53;5092632;28;20481;-64
2021/11/22 09:18:05;;;;;;;3.63;0.73;;;;;;;18.96;42.36;102623.66;5092102;28;20032;-65
2021/11/22 09:20:30;;;;;;;2.22;0.70;;;;;;;18.98;42.50;102624.44;5092695;28;20032;-62
2021/11/22 09:22:57;;;;;;;2.38;0.70;;;;;;;18.97;42.37;102613.00;5093052;28;20446;-61
2021/11/22 09:25:23;;;;;;;4.32;0.80;;;;;;;18.97;42.38;102623.56;5092629;28;20506;-63
2021/11/22 09:27:50;;;;;;;2.83;0.95;;;;;;;19.07;41.88;102628.34;5094623;28;20043;-64
2021/11/22 09:30:16;;;;;;;2.67;0.73;;;;;;;19.20;41.81;102634.59;5093635;28;20047;-64
2021/11/22 09:32:42;;;;;;;2.80;0.80;;;;;;;19.31;41.81;102634.88;5092390;28;20024;-66
2021/11/22 09:35:07;;;;;;;3.75;0.70;;;;;;;19.42;41.56;102636.84;5094074;28;20134;-64
2021/11/22 09:37:34;;;;;;;2.25;0.70;;;;;;;19.50;41.31;102639.94;5092061;28;20479;-63
2021/11/22 09:39:59;;;;;;;1.83;0.60;;;;;;;19.55;41.03;102644.91;5093018;28;20044;-67
2021/11/22 09:42:25;;;;;;;2.15;0.80;;;;;;;19.60;41.17;102650.81;5093335;28;20031;-65
2021/11/22 09:44:50;;;;;;;2.70;0.90;;;;;;;19.66;40.94;102654.88;5091905;28;20024;-65
2021/11/22 09:47:16;;;;;;;3.30;1.02;;;;;;;19.69;40.71;102654.69;5093087;28;20421;-67
2021/11/22 09:49:45;;;;;;;2.00;0.65;;;;;;;19.69;40.87;102646.75;5092819;28;20108;-65
2021/11/22 09:52:10;;;;;;;1.75;0.55;;;;;;;19.73;40.84;102650.94;5092716;28;20028;-67
2021/11/22 09:54:36;;;;;;;2.60;0.70;;;;;;;19.73;40.60;102648.28;5093076;28;20040;-67
2021/11/22 09:57:01;;;;;;;1.80;0.60;;;;;;;19.75;40.50;102656.97;5092840;28;20463;-67
2021/11/22 09:59:26;;;;;;;2.20;0.75;;;;;;;19.77;40.62;102652.47;5091756;28;20070;-67
2021/11/22 10:01:53;;;;;;;3.17;0.80;;;;;;;19.77;40.63;102656.91;5092601;28;20025;-67
2021/11/22 10:04:19;;;;;;;3.30;0.77;;;;;;;19.77;40.56;102664.84;5092618;28;20379;-67
2021/11/22 10:06:54;;;;;;;1.83;0.63;;;;;;;19.76;40.55;102666.66;5091547;28;20375;-69
2021/11/22 10:09:32;;;;;;;1.83;0.60;;;;;;;19.77;40.69;102663.03;5092594;28;20134;-67
2021/11/22 10:11:58;;;;;;;2.13;0.80;;;;;;;19.73;40.57;102665.00;5092395;28;20025;-68
2021/11/22 10:14:26;;;;;;;2.08;0.65;;;;;;;19.73;40.65;102664.16;5091569;28;20399;-68
2021/11/22 10:16:51;;;;;;;1.85;0.80;;;;;;;19.75;40.70;102664.91;5092498;28;20024;-67
2021/11/22 10:19:19;;;;;;;1.85;0.68;;;;;;;19.71;39.91;102656.31;5092498;28;20028;-66
2021/11/22 10:21:46;;;;;;;3.03;0.68;;;;;;;19.67;40.79;102662.72;5091432;28;20332;-64
2021/11/22 10:24:12;;;;;;;2.13;0.70;;;;;;;19.72;40.63;102673.03;5092274;28;20036;-65
2021/11/22 10:26:44;;;;;;;3.30;0.77;;;;;;;19.76;40.67;102674.59;5091857;28;20036;-64
2021/11/22 10:29:10;;;;;;;2.38;0.90;;;;;;;19.80;40.81;102669.97;5092340;28;20031;-62
2021/11/22 10:31:37;;;;;;;1.65;0.68;;;;;;;19.82;40.78;102661.00;5093317;28;20024;-64
2021/11/22 10:34:04;;;;;;;1.88;0.60;;;;;;;19.84;40.65;102664.41;5091974;28;20036;-66
2021/11/22 10:36:36;;;;;;;1.60;0.70;;;;;;;19.86;40.63;102662.50;5092511;28;20107;-63
2021/11/22 10:39:03;;;;;;;3.67;0.93;;;;;;;19.86;40.71;102659.84;5092894;28;20036;-65
2021/11/22 10:41:43;;;;;;;1.80;0.60;;;;;;;19.84;40.77;102659.09;5091721;28;20028;-67
2021/11/22 10:44:12;;;;;;;2.67;0.57;;;;;;;19.83;40.75;102664.50;5095576;28;20058;-63
2021/11/22 10:47:05;;;;;;;3.38;0.75;;;;;;;19.82;40.74;102662.78;5096041;28;20376;-64
2021/11/22 10:49:55;;;;;;;3.00;0.88;;;;;;;19.83;40.81;102667.13;5096045;28;20085;-63
2021/11/22 10:54:59;;;;;;;1.65;0.60;;;;;;;19.84;40.84;102668.84;5095450;28;20032;-65
2021/11/22 10:57:57;;;;;;;1.23;0.60;;;;;;;19.84;40.84;102669.69;5096309;28;20054;-67
2021/11/22 11:00:28;;;;;;;2.58;0.80;;;;;;;19.84;41.05;102668.84;5096928;28;20107;-67
2021/11/22 11:02:55;;;;;;;1.75;0.60;;;;;;;19.83;40.91;102673.25;5099350;28;20421;-66
2021/11/22 11:05:28;;;;;;;2.28;0.70;;;;;;;19.80;40.92;102660.22;5096075;28;20040;-66
2021/11/22 11:08:02;;;;;;;2.10;0.70;;;;;;;19.84;41.13;102667.03;5096678;28;20020;-70
2021/11/22 11:10:28;;;;;;;3.40;0.70;;;;;;;19.83;41.21;102665.31;5096409;28;20111;-65
2021/11/22 11:12:55;;;;;;;2.65;0.80;;;;;;;19.84;40.91;102671.50;5099046;28;20117;-66
2021/11/22 11:15:22;;;;;;;2.10;0.60;;;;;;;19.85;40.98;102670.53;5099198;28;20352;-66
2021/11/22 11:17:51;;;;;;;2.78;0.80;;;;;;;19.86;40.87;102672.25;5098317;28;20475;-66
2021/11/22 11:20:21;;;;;;;2.42;0.73;;;;;;;19.87;40.99;102668.66;5097815;28;20036;-65
2021/11/22 11:22:49;;;;;;;1.85;0.60;;;;;;;19.90;40.76;102671.97;5095803;28;20076;-65
2021/11/22 11:25:16;;;;;;;1.63;0.50;;;;;;;19.90;40.74;102674.63;5096685;28;20032;-71